Clovis, Cannon Air Force Base (KCVS)

NameCannon Air Force Base
CityClovis
CountryUnited States
ICAOKCVS
IATACVS
Altitude1309 m
CoordinatesGoogle Map
Live Air TrafficLiveATC.net
METARKCVS 221259Z AUTO 34005KT 10SM OVC007 01/01 A3014 RMK AO2 CIG 006 RWY22 SLP216 $
2019-11-22 12:59:00 Wind: North-Northwest (340°) 2.57 m/s - Visibility: 16093.4 m - Temperature: 1 °C - Dew point: 1 °C - Humidity: 100% - Pressure: 1020.66 hPa
Statistics

The table below shows the detailed information of all flights to/from Clovis, Cannon Air Force Base (KCVS).